Time;durP1;ratioP1;P1;durP2;ratioP2;P2;SDS_P1;SDS_P2;PMS_P1;PMS_P2;Temp;Humidity;BMP_temperature;BMP_pressure;BME280_temperature;BME280_humidity;BME280_pressure;Samples;Min_cycle;Max_cycle;Signal;HPM_P1;HPM_P2
2022/02/19 00:02:17;;;;;;;12.40;2.45;;;6.90;99.20;;;;;;5024440;28;20018;-43
2022/02/19 00:04:42;;;;;;;15.65;2.97;;;6.90;99.10;;;;;;5025356;28;20080;-43
2022/02/19 00:07:08;;;;;;;10.00;2.42;;;6.90;99.10;;;;;;5024738;28;20045;-43
2022/02/19 00:09:34;;;;;;;11.63;2.60;;;6.90;99.20;;;;;;5024190;28;20461;-43
2022/02/19 00:11:59;;;;;;;10.13;2.33;;;6.90;99.30;;;;;;5025307;28;20032;-43
2022/02/19 00:14:25;;;;;;;10.15;2.72;;;6.90;99.10;;;;;;5027597;28;20052;-44
2022/02/19 00:16:51;;;;;;;11.82;2.63;;;6.90;99.20;;;;;;5028560;28;20025;-43
2022/02/19 00:19:16;;;;;;;11.27;2.55;;;6.90;99.10;;;;;;5028355;28;20060;-44
2022/02/19 00:21:42;;;;;;;11.43;2.33;;;6.90;99.00;;;;;;5028916;28;20056;-42
2022/02/19 00:24:08;;;;;;;14.80;2.65;;;6.90;99.10;;;;;;5028943;28;20029;-42
2022/02/19 00:26:34;;;;;;;11.77;2.13;;;6.90;99.20;;;;;;5028705;28;20025;-43
2022/02/19 00:29:00;;;;;;;7.45;2.22;;;6.90;99.30;;;;;;5028465;28;20381;-43
2022/02/19 00:31:26;;;;;;;8.50;2.20;;;6.80;99.40;;;;;;5027666;28;20603;-42
2022/02/19 00:33:53;;;;;;;13.35;2.45;;;6.80;99.40;;;;;;5028507;28;20033;-43
2022/02/19 00:36:19;;;;;;;9.88;2.90;;;6.80;99.50;;;;;;5027969;28;20021;-43
2022/02/19 00:38:45;;;;;;;13.52;3.17;;;6.80;99.60;;;;;;5028177;28;20048;-44
2022/02/19 00:41:10;;;;;;;10.07;2.22;;;6.80;99.70;;;;;;5027810;28;20428;-43
2022/02/19 00:43:36;;;;;;;8.30;2.00;;;6.70;99.90;;;;;;5027428;28;20488;-42
2022/02/19 00:46:02;;;;;;;10.27;2.03;;;6.70;99.90;;;;;;5029046;28;20051;-42
2022/02/19 00:48:27;;;;;;;11.00;2.20;;;6.70;99.90;;;;;;5027319;28;20037;-43
2022/02/19 00:50:53;;;;;;;15.85;3.08;;;6.70;99.90;;;;;;5027974;28;20524;-42
2022/02/19 00:53:18;;;;;;;12.40;2.47;;;6.60;99.90;;;;;;5027483;28;20047;-41
2022/02/19 00:55:44;;;;;;;7.60;2.28;;;6.60;99.90;;;;;;5028443;28;20033;-43
2022/02/19 00:58:09;;;;;;;12.15;2.42;;;6.60;99.90;;;;;;5026621;28;20123;-43
2022/02/19 01:00:35;;;;;;;6.80;2.10;;;6.60;99.90;;;;;;5028281;28;20025;-43
2022/02/19 01:03:01;;;;;;;12.32;2.72;;;6.60;99.90;;;;;;5027978;28;20057;-43
2022/02/19 01:05:27;;;;;;;13.07;2.75;;;6.70;99.90;;;;;;5026807;28;20038;-43
2022/02/19 01:07:52;;;;;;;14.10;3.08;;;6.70;99.90;;;;;;5027520;28;20611;-43
2022/02/19 01:10:18;;;;;;;12.40;3.67;;;6.70;99.90;;;;;;5027544;28;20017;-43
2022/02/19 01:12:44;;;;;;;18.80;3.30;;;6.70;99.90;;;;;;5027065;28;20487;-43
2022/02/19 01:15:11;;;;;;;9.20;2.45;;;6.70;99.90;;;;;;5028734;28;20495;-43
2022/02/19 01:17:37;;;;;;;12.10;2.40;;;6.70;99.90;;;;;;5027693;28;20029;-43
2022/02/19 01:20:04;;;;;;;10.73;2.28;;;6.70;99.90;;;;;;5027400;28;20536;-42
2022/02/19 01:22:30;;;;;;;14.05;3.05;;;6.70;99.90;;;;;;5027477;28;20497;-43
2022/02/19 01:24:55;;;;;;;13.00;2.65;;;6.70;99.90;;;;;;5027021;28;20120;-43
2022/02/19 01:27:21;;;;;;;14.02;2.65;;;6.70;99.90;;;;;;5027169;28;20057;-42
2022/02/19 01:29:46;;;;;;;12.90;2.83;;;6.70;99.90;;;;;;5027156;28;20027;-42
2022/02/19 01:32:12;;;;;;;14.68;3.28;;;6.70;99.90;;;;;;5027731;28;20029;-42
2022/02/19 01:34:38;;;;;;;17.15;3.30;;;6.70;99.90;;;;;;5026200;28;20104;-43
2022/02/19 01:37:04;;;;;;;9.07;3.60;;;6.70;99.90;;;;;;5027892;28;20108;-43
2022/02/19 01:39:29;;;;;;;12.30;2.75;;;6.80;99.90;;;;;;5026503;28;20045;-43
2022/02/19 01:41:55;;;;;;;9.55;2.40;;;6.70;99.90;;;;;;5026934;28;20108;-43
2022/02/19 01:44:32;;;;;;;12.57;2.50;;;6.70;99.90;;;;;;5026280;28;20038;-42
2022/02/19 01:46:57;;;;;;;6.95;1.70;;;6.70;99.90;;;;;;5027468;28;20105;-43
2022/02/19 01:49:23;;;;;;;11.40;2.22;;;6.70;99.80;;;;;;5026571;28;20128;-43
2022/02/19 01:51:49;;;;;;;7.90;1.95;;;6.70;99.70;;;;;;5027823;28;20784;-42
2022/02/19 01:54:15;;;;;;;13.18;3.60;;;6.80;99.70;;;;;;5025593;28;20040;-42
2022/02/19 01:56:40;;;;;;;14.18;1.88;;;6.70;99.70;;;;;;5027303;28;20029;-43
2022/02/19 01:59:07;;;;;;;6.95;2.33;;;6.70;99.30;;;;;;5027050;28;20101;-43
2022/02/19 02:01:33;;;;;;;11.40;2.17;;;6.70;98.90;;;;;;5026452;28;20140;-43
2022/02/19 02:03:58;;;;;;;10.43;2.17;;;6.70;98.70;;;;;;5027077;28;20124;-43
2022/02/19 02:06:25;;;;;;;11.25;2.30;;;6.70;98.60;;;;;;5025774;28;20044;-43
2022/02/19 02:08:51;;;;;;;9.18;1.88;;;6.70;98.70;;;;;;5026761;28;20033;-43
2022/02/19 02:11:17;;;;;;;6.50;1.75;;;6.70;98.60;;;;;;5026171;28;20087;-42
2022/02/19 02:13:43;;;;;;;8.63;2.05;;;6.70;98.70;;;;;;5027196;28;20031;-43
2022/02/19 02:16:09;;;;;;;6.85;2.00;;;6.70;98.70;;;;;;5025624;28;20064;-43
2022/02/19 02:18:34;;;;;;;12.38;3.58;;;6.70;98.80;;;;;;5026727;28;20120;-44
2022/02/19 02:21:00;;;;;;;9.10;2.15;;;6.70;98.70;;;;;;5026077;28;20491;-42
2022/02/19 02:23:25;;;;;;;8.50;1.83;;;6.70;98.80;;;;;;5025975;28;20377;-43
2022/02/19 02:25:53;;;;;;;7.35;2.17;;;6.60;98.80;;;;;;5026291;28;20498;-40
2022/02/19 02:28:19;;;;;;;7.28;2.30;;;6.70;98.80;;;;;;5026242;28;20487;-43
2022/02/19 02:30:45;;;;;;;8.15;2.00;;;6.70;98.70;;;;;;5025601;28;20461;-42
2022/02/19 02:33:13;;;;;;;9.05;1.88;;;6.70;98.70;;;;;;5026733;28;20029;-43
2022/02/19 02:35:39;;;;;;;9.30;2.03;;;6.70;98.90;;;;;;5025497;28;20032;-43
2022/02/19 02:38:05;;;;;;;6.93;1.92;;;6.70;98.90;;;;;;5025996;28;20029;-42
2022/02/19 02:40:33;;;;;;;6.85;1.95;;;6.70;98.60;;;;;;5025148;28;20566;-42
2022/02/19 02:42:58;;;;;;;7.35;1.70;;;6.70;98.50;;;;;;5026281;28;20100;-43
2022/02/19 02:45:25;;;;;;;4.57;1.67;;;6.70;98.60;;;;;;5025490;28;20113;-42
2022/02/19 02:47:50;;;;;;;7.47;1.67;;;6.70;98.40;;;;;;5026213;28;20100;-42
2022/02/19 02:50:16;;;;;;;5.30;1.55;;;6.70;98.40;;;;;;5025208;28;20307;-42
2022/02/19 02:52:42;;;;;;;9.05;1.50;;;6.70;98.50;;;;;;5025334;28;20018;-43
2022/02/19 02:55:09;;;;;;;6.63;1.52;;;6.80;98.60;;;;;;5026491;28;20516;-44
2022/02/19 02:57:36;;;;;;;5.85;1.45;;;6.70;98.60;;;;;;5024588;28;20053;-43
2022/02/19 03:00:06;;;;;;;8.10;1.77;;;6.70;98.70;;;;;;5026270;28;20129;-43
2022/02/19 03:02:34;;;;;;;11.45;2.53;;;6.70;98.70;;;;;;5024935;28;20021;-43
2022/02/19 03:05:00;;;;;;;4.72;1.48;;;6.70;98.40;;;;;;5025215;28;20488;-43
2022/02/19 03:07:26;;;;;;;9.50;1.98;;;6.80;98.60;;;;;;5024758;28;20156;-41
2022/02/19 03:09:51;;;;;;;11.60;2.17;;;6.70;98.50;;;;;;5025768;28;20503;-43
2022/02/19 03:12:17;;;;;;;13.38;2.58;;;6.70;98.60;;;;;;5024500;28;20710;-43
2022/02/19 03:14:42;;;;;;;5.45;1.80;;;6.70;98.80;;;;;;5026595;28;20049;-43
2022/02/19 03:17:08;;;;;;;10.20;2.08;;;6.70;98.70;;;;;;5025106;28;20381;-42
2022/02/19 03:19:34;;;;;;;4.57;1.65;;;6.70;98.80;;;;;;5025269;28;20065;-43
2022/02/19 03:21:59;;;;;;;7.40;1.67;;;6.70;98.80;;;;;;5025344;28;20025;-42
2022/02/19 03:24:25;;;;;;;9.52;2.60;;;6.70;98.90;;;;;;5025406;28;20030;-42
2022/02/19 03:26:50;;;;;;;8.20;1.77;;;6.70;99.00;;;;;;5025025;28;20028;-43
2022/02/19 03:29:16;;;;;;;11.20;2.17;;;6.70;98.90;;;;;;5024719;28;20148;-42
2022/02/19 03:31:41;;;;;;;9.73;2.28;;;6.70;98.90;;;;;;5025607;28;20022;-41
2022/02/19 03:34:07;;;;;;;7.53;1.65;;;6.70;99.00;;;;;;5025724;28;20034;-43
2022/02/19 03:36:32;;;;;;;7.00;1.73;;;6.70;99.10;;;;;;5025639;28;20373;-44
2022/02/19 03:38:58;;;;;;;12.82;2.30;;;6.70;99.20;;;;;;5025232;28;20049;-42
2022/02/19 03:41:24;;;;;;;11.15;2.45;;;6.70;99.30;;;;;;5024572;28;20056;-42
2022/02/19 03:43:49;;;;;;;8.25;2.00;;;6.60;99.20;;;;;;5024757;28;20094;-43
2022/02/19 03:46:15;;;;;;;11.70;2.08;;;6.70;99.20;;;;;;5024629;28;20072;-42
2022/02/19 03:48:40;;;;;;;9.48;1.90;;;6.60;99.30;;;;;;5024636;28;20038;-42
2022/02/19 03:51:06;;;;;;;8.40;2.65;;;6.60;99.30;;;;;;5025326;28;20021;-43
2022/02/19 03:53:31;;;;;;;8.15;2.08;;;6.60;99.30;;;;;;5023939;28;20029;-43
2022/02/19 03:55:57;;;;;;;9.95;2.17;;;6.60;99.40;;;;;;5025564;28;20032;-43
2022/02/19 03:58:23;;;;;;;9.57;2.25;;;6.60;99.50;;;;;;5024161;28;20033;-43
2022/02/19 04:00:48;;;;;;;10.63;2.30;;;6.60;99.50;;;;;;5024827;28;20505;-43
2022/02/19 04:03:14;;;;;;;17.85;3.15;;;6.60;99.60;;;;;;5024697;28;20041;-42
2022/02/19 04:05:39;;;;;;;14.38;2.45;;;6.60;99.60;;;;;;5025190;28;20025;-43
2022/02/19 04:08:06;;;;;;;9.70;2.20;;;6.60;99.60;;;;;;5024423;28;20515;-43
2022/02/19 04:10:32;;;;;;;11.48;2.60;;;6.60;99.50;;;;;;5024630;28;20211;-42
2022/02/19 04:12:57;;;;;;;15.73;2.67;;;6.60;99.60;;;;;;5025165;28;20113;-42
2022/02/19 04:15:23;;;;;;;14.27;2.20;;;6.60;99.60;;;;;;5023493;28;20489;-42
2022/02/19 04:17:48;;;;;;;16.48;2.90;;;6.60;99.60;;;;;;5026144;28;20045;-42
2022/02/19 04:20:15;;;;;;;12.70;2.90;;;6.60;99.30;;;;;;5023748;28;20112;-43
2022/02/19 04:22:41;;;;;;;10.85;2.15;;;6.60;99.50;;;;;;5024455;28;20068;-43
2022/02/19 04:25:11;;;;;;;7.47;2.10;;;6.50;99.20;;;;;;5025338;28;20059;-43
2022/02/19 04:27:36;;;;;;;13.02;2.50;;;6.60;99.30;;;;;;5025271;28;20059;-41
2022/02/19 04:30:04;;;;;;;11.15;2.20;;;6.60;99.30;;;;;;5024487;28;20064;-43
2022/02/19 04:32:29;;;;;;;12.43;2.45;;;6.60;99.40;;;;;;5024029;28;20099;-43
2022/02/19 04:34:55;;;;;;;10.45;2.13;;;6.60;99.50;;;;;;5024466;28;20033;-42
2022/02/19 04:37:21;;;;;;;9.70;1.90;;;6.50;99.40;;;;;;5024030;28;20021;-41
2022/02/19 04:39:46;;;;;;;10.77;2.40;;;6.50;98.90;;;;;;5025142;28;20033;-42
2022/02/19 04:42:12;;;;;;;12.45;2.10;;;6.50;98.90;;;;;;5024563;28;20049;-43
2022/02/19 04:44:38;;;;;;;10.70;2.10;;;6.60;99.10;;;;;;5023682;28;20431;-42
2022/02/19 04:47:05;;;;;;;12.90;2.58;;;6.50;99.00;;;;;;5024860;28;20010;-43
2022/02/19 04:49:31;;;;;;;9.38;2.30;;;6.60;99.00;;;;;;5024094;28;20029;-43
2022/02/19 04:51:56;;;;;;;8.15;2.40;;;6.50;99.00;;;;;;5023979;28;20400;-43
2022/02/19 04:54:22;;;;;;;7.40;1.77;;;6.50;99.00;;;;;;5025249;28;20484;-44
2022/02/19 04:56:47;;;;;;;10.88;1.95;;;6.50;99.00;;;;;;5023958;28;20141;-44
2022/02/19 04:59:13;;;;;;;9.55;2.47;;;6.50;98.80;;;;;;5025274;28;20560;-43
2022/02/19 05:01:40;;;;;;;12.18;2.22;;;6.50;99.00;;;;;;5027473;28;20072;-43
2022/02/19 05:04:05;;;;;;;10.55;2.58;;;6.50;98.90;;;;;;5028156;28;20037;-43
2022/02/19 05:06:31;;;;;;;12.40;2.55;;;6.50;98.70;;;;;;5027573;28;20376;-44
2022/02/19 05:08:57;;;;;;;7.95;2.17;;;6.50;98.70;;;;;;5028493;28;20073;-43
2022/02/19 05:11:22;;;;;;;11.55;2.40;;;6.50;98.80;;;;;;5026432;28;20419;-43
2022/02/19 05:13:48;;;;;;;11.85;2.65;;;6.50;98.70;;;;;;5028443;28;20026;-43
2022/02/19 05:16:14;;;;;;;6.03;1.50;;;6.50;98.80;;;;;;5027134;28;20021;-43
2022/02/19 05:18:42;;;;;;;12.00;2.20;;;6.50;98.80;;;;;;5027516;28;20044;-42
2022/02/19 05:21:08;;;;;;;7.85;1.65;;;6.50;98.60;;;;;;5026700;28;20018;-43
2022/02/19 05:23:35;;;;;;;9.23;2.05;;;6.50;98.70;;;;;;5027542;28;20025;-42
2022/02/19 05:26:01;;;;;;;10.40;1.65;;;6.50;98.70;;;;;;5027347;28;20025;-43
2022/02/19 05:28:26;;;;;;;8.13;2.28;;;6.50;98.70;;;;;;5027347;28;20547;-42
2022/02/19 05:30:52;;;;;;;7.40;2.08;;;6.40;98.80;;;;;;5027728;28;20040;-43
2022/02/19 05:33:17;;;;;;;12.00;2.10;;;6.40;98.90;;;;;;5026627;28;20046;-42
2022/02/19 05:35:44;;;;;;;13.15;1.80;;;6.40;99.00;;;;;;5027581;28;20113;-44
2022/02/19 05:38:09;;;;;;;6.88;2.38;;;6.30;99.10;;;;;;5026930;28;20037;-43
2022/02/19 05:40:35;;;;;;;9.20;2.22;;;6.30;99.30;;;;;;5027044;28;20029;-42
2022/02/19 05:43:00;;;;;;;10.23;2.00;;;6.20;99.40;;;;;;5027451;28;20363;-42
2022/02/19 05:45:26;;;;;;;10.30;2.55;;;6.20;99.50;;;;;;5027086;28;20072;-43
2022/02/19 05:47:51;;;;;;;8.43;2.22;;;6.10;99.80;;;;;;5026143;28;20460;-42
2022/02/19 05:50:17;;;;;;;12.70;2.33;;;6.00;99.90;;;;;;5027544;28;20040;-43
2022/02/19 05:52:42;;;;;;;9.27;2.13;;;6.00;99.90;;;;;;5027355;28;20017;-43
2022/02/19 05:55:08;;;;;;;7.63;1.77;;;6.10;99.90;;;;;;5026710;28;20065;-42
2022/02/19 05:57:40;;;;;;;11.43;2.15;;;6.10;99.90;;;;;;5026508;28;20017;-43
2022/02/19 06:00:06;;;;;;;9.75;1.80;;;6.10;99.90;;;;;;5026898;28;20037;-43
2022/02/19 06:02:32;;;;;;;9.63;1.98;;;6.10;99.70;;;;;;5008641;28;20029;-43
2022/02/19 06:04:57;;;;;;;10.82;2.05;;;6.20;99.70;;;;;;5027532;28;20055;-42
2022/02/19 06:07:23;;;;;;;9.20;2.10;;;6.20;99.60;;;;;;5025850;28;20132;-42
2022/02/19 06:09:48;;;;;;;8.23;1.65;;;6.30;99.40;;;;;;5027608;28;20034;-42
2022/02/19 06:12:14;;;;;;;7.18;1.55;;;6.30;99.50;;;;;;5025787;28;20099;-40
2022/02/19 06:14:39;;;;;;;6.10;1.70;;;6.30;99.60;;;;;;5026625;28;20022;-43
2022/02/19 06:17:05;;;;;;;9.30;2.60;;;6.40;99.70;;;;;;5027128;28;20029;-43
2022/02/19 06:19:30;;;;;;;7.15;2.05;;;6.40;99.80;;;;;;5026654;28;20480;-43
2022/02/19 06:21:56;;;;;;;9.57;2.42;;;6.40;99.80;;;;;;5026951;28;20110;-43
2022/02/19 06:24:21;;;;;;;9.55;2.75;;;6.40;99.80;;;;;;5026341;28;20159;-42
2022/02/19 06:26:47;;;;;;;8.20;2.47;;;6.40;99.80;;;;;;5027149;28;20428;-42
2022/02/19 06:29:12;;;;;;;9.50;1.90;;;6.40;99.80;;;;;;5026225;28;20024;-42
2022/02/19 06:31:38;;;;;;;15.43;2.25;;;6.30;99.90;;;;;;5026921;28;20032;-42
2022/02/19 06:34:03;;;;;;;10.10;1.95;;;6.30;99.90;;;;;;5026708;28;20512;-42
2022/02/19 06:36:29;;;;;;;10.10;2.08;;;6.30;99.90;;;;;;5025311;28;20018;-43
2022/02/19 06:38:54;;;;;;;11.65;2.50;;;6.20;99.90;;;;;;5026680;28;20040;-42
2022/02/19 06:41:20;;;;;;;10.13;2.25;;;6.20;99.90;;;;;;5026415;28;20025;-43
2022/02/19 06:43:45;;;;;;;9.05;1.95;;;6.20;99.90;;;;;;5026074;28;20464;-40
2022/02/19 06:46:11;;;;;;;11.70;2.83;;;6.20;99.90;;;;;;5026447;28;20026;-43
2022/02/19 06:48:37;;;;;;;10.65;2.10;;;6.20;99.90;;;;;;5025664;28;20029;-43
2022/02/19 06:51:02;;;;;;;8.07;1.90;;;6.20;99.90;;;;;;5025921;28;20037;-41
2022/02/19 06:53:28;;;;;;;9.48;1.80;;;6.20;99.90;;;;;;5026001;28;20029;-43
2022/02/19 06:55:53;;;;;;;7.95;2.30;;;6.20;99.90;;;;;;5026213;28;20048;-41
2022/02/19 06:58:20;;;;;;;9.02;1.77;;;6.20;99.90;;;;;;5025151;28;20037;-42
2022/02/19 07:00:46;;;;;;;9.30;2.35;;;6.20;99.90;;;;;;5026083;28;20026;-43
2022/02/19 07:03:12;;;;;;;11.07;2.20;;;6.30;99.90;;;;;;5026233;28;20018;-43
2022/02/19 07:05:38;;;;;;;12.60;2.08;;;6.30;99.90;;;;;;5024928;28;20040;-42
2022/02/19 07:08:03;;;;;;;11.70;2.97;;;6.30;99.90;;;;;;5026609;28;20049;-43
2022/02/19 07:10:29;;;;;;;6.93;1.65;;;6.30;99.90;;;;;;5025216;28;20451;-43
2022/02/19 07:12:55;;;;;;;9.77;2.00;;;6.30;99.90;;;;;;5025983;28;20136;-42
2022/02/19 07:15:21;;;;;;;10.73;2.00;;;6.30;99.90;;;;;;5025864;28;20037;-44
2022/02/19 07:17:52;;;;;;;9.38;1.80;;;6.30;99.90;;;;;;5025564;28;20041;-42
2022/02/19 07:20:22;;;;;;;6.88;2.08;;;6.30;99.90;;;;;;5026210;28;20080;-42
2022/02/19 07:22:52;;;;;;;7.65;1.90;;;6.20;99.90;;;;;;5026508;28;20029;-41
2022/02/19 07:25:19;;;;;;;11.48;1.90;;;6.30;99.90;;;;;;5024878;28;20025;-42
2022/02/19 07:27:46;;;;;;;8.15;1.83;;;6.30;99.90;;;;;;5025763;28;20029;-41
2022/02/19 07:30:15;;;;;;;11.98;2.13;;;6.30;99.90;;;;;;5025983;28;20036;-43
2022/02/19 07:32:40;;;;;;;12.13;2.80;;;6.30;99.90;;;;;;5014383;28;20033;-41
2022/02/19 07:35:07;;;;;;;12.52;2.47;;;6.30;99.90;;;;;;5025758;28;20028;-43
2022/02/19 07:37:34;;;;;;;7.75;2.00;;;6.40;99.90;;;;;;5025340;28;20496;-44
2022/02/19 07:39:59;;;;;;;8.48;2.00;;;6.30;99.90;;;;;;5025264;28;20404;-44
2022/02/19 07:42:25;;;;;;;10.80;1.95;;;6.40;99.90;;;;;;5024961;28;20560;-43
2022/02/19 07:44:52;;;;;;;10.23;1.95;;;6.40;99.90;;;;;;5026318;28;20534;-44
2022/02/19 07:47:25;;;;;;;7.60;1.92;;;6.40;99.90;;;;;;5024585;28;20030;-43
2022/02/19 07:58:19;;;;;;;10.25;1.88;;;6.50;99.90;;;;;;5025784;28;20095;-44
2022/02/19 08:00:49;;;;;;;8.98;1.75;;;6.50;99.90;;;;;;5024357;28;20025;-43
2022/02/19 08:03:15;;;;;;;9.70;2.80;;;6.50;99.90;;;;;;5021803;28;20041;-44
2022/02/19 08:05:42;;;;;;;6.63;1.80;;;6.50;99.90;;;;;;5026125;28;20025;-43
2022/02/19 08:08:08;;;;;;;8.02;2.08;;;6.50;99.90;;;;;;5024045;28;20046;-43
2022/02/19 08:10:36;;;;;;;11.13;2.10;;;6.50;99.90;;;;;;5025123;28;20864;-43
2022/02/19 08:13:03;;;;;;;7.75;1.98;;;6.60;99.90;;;;;;5025368;28;20044;-43
2022/02/19 08:15:29;;;;;;;10.63;2.20;;;6.60;99.90;;;;;;5024393;28;20041;-43
2022/02/19 08:17:55;;;;;;;10.30;2.30;;;6.60;99.90;;;;;;5025433;28;20033;-41
2022/02/19 08:20:21;;;;;;;11.70;2.10;;;6.60;99.90;;;;;;5025255;28;20384;-44
2022/02/19 08:22:46;;;;;;;6.10;1.75;;;6.60;99.90;;;;;;5024705;28;20021;-42
2022/02/19 08:25:12;;;;;;;8.48;2.22;;;6.70;99.90;;;;;;5024680;28;20052;-43
2022/02/19 08:27:39;;;;;;;7.72;1.58;;;6.70;99.90;;;;;;5024955;28;20025;-43
2022/02/19 08:30:06;;;;;;;8.57;2.28;;;6.70;99.90;;;;;;5025306;28;20045;-43
2022/02/19 08:32:32;;;;;;;8.20;1.95;;;6.70;99.90;;;;;;5024443;28;20104;-43
2022/02/19 08:34:57;;;;;;;9.43;1.90;;;6.70;99.90;;;;;;5026625;28;20033;-43
2022/02/19 08:37:23;;;;;;;8.57;1.98;;;6.80;99.90;;;;;;5028406;28;20037;-43
2022/02/19 08:39:49;;;;;;;6.97;1.80;;;6.80;99.90;;;;;;5028946;28;20030;-39
2022/02/19 08:42:15;;;;;;;10.38;1.92;;;6.80;99.90;;;;;;5027927;28;20037;-43
2022/02/19 08:44:40;;;;;;;11.82;2.08;;;6.80;99.90;;;;;;5028722;28;20037;-42
2022/02/19 08:47:06;;;;;;;9.25;1.98;;;6.80;99.90;;;;;;5029190;28;20623;-45
2022/02/19 08:49:32;;;;;;;9.23;2.03;;;6.80;99.90;;;;;;5027107;28;20025;-43
2022/02/19 08:52:01;;;;;;;9.30;2.55;;;6.80;99.90;;;;;;5029196;28;20029;-44
2022/02/19 08:54:27;;;;;;;6.20;1.70;;;6.80;99.90;;;;;;5028330;28;20025;-43
2022/02/19 08:56:53;;;;;;;6.18;1.50;;;6.90;99.90;;;;;;5027978;28;20389;-43
2022/02/19 08:59:19;;;;;;;7.43;1.95;;;6.90;99.90;;;;;;5027791;28;20084;-43
2022/02/19 09:01:44;;;;;;;6.15;1.90;;;7.00;99.90;;;;;;5028511;28;20396;-43
2022/02/19 09:04:10;;;;;;;11.63;1.88;;;7.10;99.90;;;;;;5027630;28;20014;-43
2022/02/19 09:06:36;;;;;;;5.85;2.10;;;7.20;99.90;;;;;;5027605;28;20045;-44
2022/02/19 09:09:06;;;;;;;9.90;2.53;;;7.20;99.90;;;;;;5028353;28;20021;-42
2022/02/19 09:11:35;;;;;;;8.90;1.85;;;7.20;99.90;;;;;;5027618;28;20025;-42
2022/02/19 09:14:02;;;;;;;11.85;2.08;;;7.20;99.90;;;;;;5028241;28;20052;-42
2022/02/19 09:16:29;;;;;;;8.13;1.80;;;7.20;99.90;;;;;;5027786;28;20483;-41
2022/02/19 09:18:56;;;;;;;9.70;1.80;;;7.30;99.90;;;;;;5027529;28;20112;-42
2022/02/19 09:21:22;;;;;;;7.97;1.80;;;7.30;99.90;;;;;;5028105;28;20022;-43
2022/02/19 09:23:50;;;;;;;8.65;1.77;;;7.40;99.90;;;;;;5028049;28;20037;-44
2022/02/19 09:26:16;;;;;;;10.95;2.63;;;7.40;99.90;;;;;;5026784;28;20068;-43
2022/02/19 09:28:41;;;;;;;9.27;2.15;;;7.40;99.90;;;;;;5028488;28;20025;-43
2022/02/19 09:31:07;;;;;;;8.55;2.13;;;7.50;99.90;;;;;;5027661;28;20132;-43
2022/02/19 09:33:32;;;;;;;6.35;1.80;;;7.40;99.90;;;;;;5028166;28;20207;-43
2022/02/19 09:35:58;;;;;;;8.23;1.83;;;7.40;99.90;;;;;;5028431;28;20036;-42
2022/02/19 09:38:24;;;;;;;6.93;1.50;;;7.30;99.90;;;;;;5026643;28;20032;-44
2022/02/19 09:40:49;;;;;;;13.05;2.17;;;7.30;99.90;;;;;;5027513;28;20105;-42
2022/02/19 09:43:18;;;;;;;10.85;2.10;;;7.30;99.90;;;;;;5027639;28;20045;-42
2022/02/19 09:45:48;;;;;;;6.10;1.80;;;7.40;99.90;;;;;;5027059;28;20037;-42
2022/02/19 09:48:16;;;;;;;9.05;1.85;;;7.40;99.90;;;;;;5027438;28;20038;-42
2022/02/19 09:50:44;;;;;;;7.72;1.92;;;7.40;99.90;;;;;;5027134;28;20030;-44
2022/02/19 09:53:11;;;;;;;11.00;2.15;;;7.40;99.90;;;;;;5026611;28;20036;-43
2022/02/19 09:55:37;;;;;;;10.82;2.30;;;7.40;99.90;;;;;;5027224;28;20036;-44
2022/02/19 09:58:04;;;;;;;9.48;2.08;;;7.50;99.90;;;;;;5027400;28;20021;-43
2022/02/19 10:00:39;;;;;;;12.70;2.13;;;7.50;99.90;;;;;;5026227;28;20041;-43
2022/02/19 10:03:22;;;;;;;9.23;2.00;;;7.50;99.90;;;;;;5027137;28;20033;-42
2022/02/19 10:05:48;;;;;;;;;;;7.50;99.90;;;;;;5027650;28;20380;-42
2022/02/19 10:08:14;;;;;;;9.82;2.00;;;7.60;99.90;;;;;;5026196;28;19921;-43
2022/02/19 10:10:45;;;;;;;9.18;1.70;;;7.60;99.80;;;;;;5027306;28;20029;-44
2022/02/19 10:13:25;;;;;;;7.90;2.30;;;7.70;99.80;;;;;;5026517;28;20029;-43
2022/02/19 10:15:51;;;;;;;7.95;1.40;;;7.80;99.90;;;;;;5027247;28;20021;-43
2022/02/19 10:18:23;;;;;;;12.05;2.47;;;7.90;99.90;;;;;;5026392;28;20100;-44
2022/02/19 10:21:07;;;;;;;9.93;2.33;;;7.90;99.40;;;;;;5025870;28;20029;-43
2022/02/19 10:23:33;;;;;;;9.30;2.08;;;7.90;99.60;;;;;;5017369;28;20689;-43
2022/02/19 10:26:03;;;;;;;8.13;2.00;;;7.90;98.90;;;;;;5027250;28;20560;-43
2022/02/19 10:28:28;;;;;;;7.63;1.70;;;7.80;99.00;;;;;;5025587;28;20120;-42
2022/02/19 10:30:54;;;;;;;5.75;1.45;;;7.90;99.40;;;;;;5026772;28;20136;-43
2022/02/19 10:33:26;;;;;;;10.48;2.00;;;7.90;99.70;;;;;;5025998;28;20029;-44
2022/02/19 10:35:53;;;;;;;11.07;2.28;;;8.00;99.70;;;;;;5025543;28;20017;-43
2022/02/19 10:38:19;;;;;;;6.57;1.70;;;8.00;99.90;;;;;;5025987;28;20095;-42
2022/02/19 10:40:47;;;;;;;8.43;1.77;;;8.10;99.80;;;;;;5027055;28;20053;-41
2022/02/19 10:43:20;;;;;;;12.65;2.65;;;8.10;99.50;;;;;;5021892;28;20559;-42
2022/02/19 10:46:00;;;;;;;11.73;2.13;;;8.20;99.20;;;;;;5026668;28;20033;-43
2022/02/19 10:48:34;;;;;;;6.60;1.60;;;8.30;99.40;;;;;;5023347;28;20025;-42
2022/02/19 10:51:19;;;;;;;9.60;1.90;;;8.20;99.50;;;;;;5026629;28;20148;-42
2022/02/19 10:53:59;;;;;;;10.45;1.95;;;8.10;99.40;;;;;;5018944;28;20014;-44
2022/02/19 10:56:28;;;;;;;9.40;2.00;;;8.10;98.70;;;;;;5018178;28;20108;-43
2022/02/19 10:59:08;;;;;;;8.95;2.45;;;8.10;98.80;;;;;;5025916;28;20091;-42
2022/02/19 11:01:47;;;;;;;11.98;2.10;;;8.10;98.70;;;;;;5026441;28;20029;-42
2022/02/19 11:04:18;;;;;;;6.03;1.83;;;8.10;99.10;;;;;;5024790;28;20485;-43
2022/02/19 11:06:44;;;;;;;6.07;2.13;;;8.30;99.20;;;;;;5026168;28;20469;-43
2022/02/19 11:09:11;;;;;;;7.93;1.80;;;8.40;99.30;;;;;;5025662;28;20044;-43
2022/02/19 11:11:39;;;;;;;12.02;2.22;;;8.60;99.50;;;;;;5025112;28;20492;-43
2022/02/19 11:14:06;;;;;;;7.57;1.88;;;8.70;99.50;;;;;;5025436;28;20144;-42
2022/02/19 11:16:34;;;;;;;6.03;1.73;;;8.70;99.60;;;;;;5024791;28;20080;-43
2022/02/19 11:18:59;;;;;;;8.55;1.98;;;8.80;99.80;;;;;;5025526;28;20119;-44
2022/02/19 11:21:27;;;;;;;9.07;2.30;;;8.80;99.70;;;;;;5025751;28;20481;-42
2022/02/19 11:23:54;;;;;;;8.30;1.95;;;8.80;99.90;;;;;;5025290;28;20548;-43
2022/02/19 11:26:22;;;;;;;5.53;1.70;;;8.80;99.80;;;;;;5025189;28;20029;-42
2022/02/19 11:28:50;;;;;;;8.15;1.80;;;8.80;99.50;;;;;;5025426;28;20030;-43
2022/02/19 11:31:16;;;;;;;7.97;1.77;;;8.90;99.00;;;;;;5024848;28;20105;-42
2022/02/19 11:33:46;;;;;;;9.98;1.60;;;8.80;98.60;;;;;;5025191;28;20034;-43
2022/02/19 11:36:11;;;;;;;7.43;1.77;;;8.80;98.60;;;;;;5025553;28;20033;-42
2022/02/19 11:38:50;;;;;;;8.57;1.90;;;8.70;98.10;;;;;;5024760;28;20045;-43
2022/02/19 11:41:37;;;;;;;8.30;2.58;;;8.70;97.80;;;;;;5025016;28;20032;-42
2022/02/19 11:44:22;;;;;;;6.35;1.67;;;8.70;97.40;;;;;;5025103;28;20028;-42
2022/02/19 11:46:49;;;;;;;7.50;1.63;;;8.80;97.00;;;;;;5025080;28;20112;-43
2022/02/19 11:49:23;;;;;;;7.80;1.58;;;8.90;96.50;;;;;;5024697;28;20068;-42
2022/02/19 11:52:03;;;;;;;12.60;2.45;;;8.90;96.80;;;;;;5025177;28;20465;-43
2022/02/19 11:54:30;;;;;;;7.40;1.52;;;9.00;96.80;;;;;;5024369;28;20056;-42
2022/02/19 11:56:56;;;;;;;6.55;1.52;;;9.00;96.80;;;;;;5026294;28;20057;-43
2022/02/19 11:59:28;;;;;;;9.88;1.73;;;9.20;97.10;;;;;;5024343;28;20030;-43
2022/02/19 12:02:23;;;;;;;7.85;1.85;;;9.30;96.30;;;;;;5025548;28;20021;-44
2022/02/19 12:05:15;;;;;;;4.60;1.50;;;9.30;96.60;;;;;;5025143;28;20036;-42
2022/02/19 12:08:01;;;;;;;5.63;1.85;;;9.30;96.90;;;;;;5025013;28;20131;-42
2022/02/19 12:10:27;;;;;;;6.57;1.55;;;9.20;96.60;;;;;;5028695;28;20052;-43
2022/02/19 12:13:13;;;;;;;6.60;1.48;;;9.10;96.30;;;;;;5028852;28;20022;-42
2022/02/19 12:15:41;;;;;;;10.80;1.95;;;8.90;96.70;;;;;;5029114;28;20044;-44
2022/02/19 12:18:11;;;;;;;7.20;1.60;;;8.90;97.00;;;;;;5029094;28;20103;-41
2022/02/19 12:20:38;;;;;;;8.93;1.92;;;8.90;97.20;;;;;;5028006;28;20033;-42
2022/02/19 12:23:06;;;;;;;11.32;1.83;;;8.90;97.40;;;;;;5029088;28;20380;-44
2022/02/19 12:26:05;;;;;;;9.40;1.60;;;9.00;97.60;;;;;;5027950;28;20475;-43
2022/02/19 12:28:31;;;;;;;7.38;1.67;;;9.10;97.00;;;;;;5028062;28;20025;-42
2022/02/19 12:31:24;;;;;;;9.90;2.58;;;9.20;97.20;;;;;;5028554;28;20044;-43
2022/02/19 12:33:52;;;;;;;7.15;2.13;;;9.20;97.40;;;;;;5028970;28;20105;-43
2022/02/19 12:36:18;;;;;;;7.63;1.58;;;9.30;97.50;;;;;;5028618;28;20484;-43
2022/02/19 12:38:49;;;;;;;5.95;1.70;;;9.30;97.20;;;;;;5029328;28;20083;-43
2022/02/19 12:41:14;;;;;;;9.38;1.65;;;9.30;97.00;;;;;;5027604;28;20037;-43
2022/02/19 12:43:56;;;;;;;5.97;1.52;;;9.30;96.80;;;;;;5029066;28;20494;-43
2022/02/19 12:46:22;;;;;;;7.32;1.48;;;9.40;96.80;;;;;;5027822;28;20030;-42
2022/02/19 12:48:48;;;;;;;9.98;1.70;;;9.50;96.80;;;;;;5028479;28;20292;-44
2022/02/19 12:51:13;;;;;;;6.20;1.30;;;9.50;96.10;;;;;;5027961;28;20048;-41
2022/02/19 12:53:40;;;;;;;5.70;1.63;;;9.50;95.30;;;;;;5028330;28;20164;-43
2022/02/19 12:56:05;;;;;;;6.15;1.55;;;9.50;94.80;;;;;;5028247;28;20420;-43
2022/02/19 12:58:31;;;;;;;10.52;1.90;;;9.40;94.80;;;;;;5027605;28;20511;-43
2022/02/19 13:00:57;;;;;;;7.53;1.65;;;9.30;95.20;;;;;;5028160;28;20037;-44
2022/02/19 13:03:23;;;;;;;4.15;1.40;;;9.30;95.60;;;;;;5027210;28;20531;-43